Time;durP1;ratioP1;P1;durP2;ratioP2;P2;SDS_P1;SDS_P2;PMS_P1;PMS_P2;Temp;Humidity;BMP_temperature;BMP_pressure;BME280_temperature;BME280_humidity;BME280_pressure;Samples;Min_cycle;Max_cycle;Signal;HPM_P1;HPM_P2
2022/11/01 00:01:12;;;;;;;1999.90;999.90;;;;;;;10.65;100.00;93925.63;5078518;28;20179;-66
2022/11/01 00:03:38;;;;;;;1999.90;999.90;;;;;;;10.63;100.00;93942.44;5078318;28;20189;-65
2022/11/01 00:06:03;;;;;;;1999.90;999.90;;;;;;;10.62;100.00;93960.03;5077794;28;20179;-65
2022/11/01 00:08:29;;;;;;;1999.90;999.90;;;;;;;10.60;100.00;93978.81;5078615;28;20202;-69
2022/11/01 00:11:06;;;;;;;1999.90;999.90;;;;;;;10.53;100.00;94054.69;5078044;28;20173;-64
2022/11/01 00:13:31;;;;;;;1999.90;999.90;;;;;;;10.46;100.00;94076.75;5078190;28;20200;-76
2022/11/01 00:15:57;;;;;;;1999.90;999.90;;;;;;;10.51;100.00;94103.47;5078451;28;20187;-76
2022/11/01 00:18:22;;;;;;;1999.90;999.90;;;;;;;10.57;100.00;94101.75;5077961;28;20174;-77
2022/11/01 00:20:47;;;;;;;1999.90;999.90;;;;;;;10.62;100.00;94079.38;5078491;28;20172;-76
2022/11/01 00:23:13;;;;;;;1999.90;999.90;;;;;;;10.74;100.00;94098.50;5077690;28;20189;-76
2022/11/01 00:25:38;;;;;;;1999.90;999.90;;;;;;;10.82;100.00;94085.41;5077562;28;20176;-76
2022/11/01 00:28:04;;;;;;;1999.90;999.90;;;;;;;10.88;100.00;94086.38;5077917;28;20198;-69
2022/11/01 00:30:29;;;;;;;1999.90;999.90;;;;;;;10.94;100.00;94076.44;5077657;28;20226;-65
2022/11/01 00:32:58;;;;;;;1999.90;999.90;;;;;;;10.99;100.00;94092.28;5077692;28;20278;-64
2022/11/01 00:35:23;;;;;;;1999.90;999.90;;;;;;;10.99;100.00;94098.53;5077653;28;20181;-65
2022/11/01 00:37:49;;;;;;;1999.90;999.90;;;;;;;11.00;100.00;94132.06;5077621;28;20170;-65
2022/11/01 00:40:14;;;;;;;1999.90;999.90;;;;;;;11.01;100.00;94171.84;5077961;28;20177;-65
2022/11/01 00:42:40;;;;;;;1999.90;999.90;;;;;;;11.03;100.00;94196.75;5077642;28;20170;-67
2022/11/01 00:45:06;;;;;;;1999.90;999.90;;;;;;;11.03;100.00;94215.88;5078068;28;20175;-65
2022/11/01 00:47:31;;;;;;;1999.90;999.90;;;;;;;11.05;100.00;94227.13;5078225;28;20224;-64
2022/11/01 00:49:56;;;;;;;1999.90;999.90;;;;;;;11.07;100.00;94235.66;5077046;28;20172;-76
2022/11/01 00:52:22;;;;;;;1999.90;999.90;;;;;;;11.03;100.00;94257.59;5077278;28;20197;-77
2022/11/01 00:54:47;;;;;;;1999.90;999.90;;;;;;;11.05;100.00;94270.84;5077301;28;20195;-77
2022/11/01 00:57:12;;;;;;;1999.90;999.90;;;;;;;11.07;100.00;94268.47;5077982;28;20173;-77
2022/11/01 00:59:38;;;;;;;1999.90;999.90;;;;;;;11.05;100.00;94270.84;5077069;28;20174;-77
2022/11/01 01:02:03;;;;;;;1999.90;999.90;;;;;;;11.05;100.00;94285.28;5076552;28;20178;-77
2022/11/01 01:04:28;;;;;;;1999.90;999.90;;;;;;;11.03;100.00;94306.03;5077077;28;20383;-65
2022/11/01 01:06:54;;;;;;;1999.90;999.90;;;;;;;11.01;100.00;94309.19;5077174;28;20173;-69
2022/11/01 01:09:19;;;;;;;1999.90;999.90;;;;;;;11.00;100.00;94315.09;5076812;28;20174;-69
2022/11/01 01:11:44;;;;;;;1999.90;999.90;;;;;;;10.97;100.00;94319.47;5076929;28;20178;-69
2022/11/01 01:14:10;;;;;;;1999.90;999.90;;;;;;;10.94;100.00;94320.31;5076862;28;20181;-69
2022/11/01 01:16:36;;;;;;;1999.90;999.90;;;;;;;10.93;100.00;94307.09;5077531;28;20190;-69
2022/11/01 01:19:01;;;;;;;1999.90;999.90;;;;;;;10.94;100.00;94305.88;5077049;28;20174;-69
2022/11/01 01:21:27;;;;;;;1999.90;999.90;;;;;;;10.89;100.00;94307.16;5076962;28;20260;-69
2022/11/01 01:23:53;;;;;;;1999.90;999.90;;;;;;;10.87;100.00;94304.13;5077458;28;20247;-69
2022/11/01 01:26:19;;;;;;;1999.90;999.90;;;;;;;10.84;100.00;94318.63;5077593;28;20177;-76
2022/11/01 01:28:45;;;;;;;1999.90;999.90;;;;;;;10.78;100.00;94325.81;5077581;28;20203;-77
2022/11/01 01:31:11;;;;;;;1999.90;999.90;;;;;;;10.75;100.00;94334.09;5076536;28;20179;-78
2022/11/01 01:33:37;;;;;;;1999.90;999.90;;;;;;;10.72;100.00;94313.09;5077225;28;20214;-77
2022/11/01 01:36:04;;;;;;;1999.90;999.90;;;;;;;10.68;100.00;94309.72;5077644;28;20268;-77
2022/11/01 01:38:29;;;;;;;1999.90;999.90;;;;;;;10.67;100.00;94306.19;5076993;28;20168;-77
2022/11/01 01:41:54;;;;;;;1999.90;999.90;;;;;;;10.64;100.00;94289.94;5076508;28;20242;-65
2022/11/01 01:43:42;;;;;;;1999.90;999.90;;;;;;;10.56;100.00;94280.41;5094342;28;20175;-69
2022/11/01 01:46:09;;;;;;;1999.90;999.90;;;;;;;10.53;100.00;94264.88;5076670;28;20213;-69
2022/11/01 01:48:36;;;;;;;1999.90;999.90;;;;;;;10.48;100.00;94254.50;5076726;28;20185;-69
2022/11/01 01:51:05;;;;;;;1999.90;999.90;;;;;;;10.46;100.00;94251.41;5076601;28;20177;-70
2022/11/01 01:53:32;;;;;;;1999.90;999.90;;;;;;;10.44;100.00;94253.78;5076268;28;20204;-69
2022/11/01 01:56:04;;;;;;;1999.90;999.90;;;;;;;10.41;100.00;94258.16;5077128;28;20181;-69
2022/11/01 01:58:42;;;;;;;1999.90;999.90;;;;;;;10.36;100.00;94274.28;5076474;28;20269;-69
2022/11/01 02:01:07;;;;;;;1999.90;999.90;;;;;;;10.37;100.00;94281.28;5076198;28;20302;-65
2022/11/01 02:03:35;;;;;;;1999.90;999.90;;;;;;;10.34;100.00;94282.88;5076646;28;20190;-65
2022/11/01 02:06:13;;;;;;;1999.90;999.90;;;;;;;10.34;100.00;94284.88;5076143;28;20175;-65
2022/11/01 02:08:42;;;;;;;1999.90;999.90;;;;;;;10.34;100.00;94276.69;5077008;28;20176;-65
2022/11/01 02:11:08;;;;;;;1999.90;999.90;;;;;;;10.31;100.00;94285.72;5076252;28;20173;-65
2022/11/01 02:13:34;;;;;;;1999.90;999.90;;;;;;;10.25;100.00;94301.06;5076840;28;20227;-65
2022/11/01 02:16:29;;;;;;;1999.90;999.90;;;;;;;10.19;100.00;94302.78;5079633;28;20221;-65
2022/11/01 02:19:14;;;;;;;1999.90;999.90;;;;;;;10.16;100.00;94317.28;5072011;28;20219;-64
2022/11/01 02:21:42;;;;;;;1999.90;999.90;;;;;;;10.13;100.00;94325.09;5080290;28;20208;-76
2022/11/01 02:24:21;;;;;;;1999.90;999.90;;;;;;;10.13;100.00;94327.84;5080317;28;20177;-76
2022/11/01 02:27:05;;;;;;;1999.90;999.90;;;;;;;10.12;100.00;94341.16;5080685;28;20177;-76
2022/11/01 02:29:52;;;;;;;1999.90;999.90;;;;;;;10.08;100.00;94338.50;5079668;28;20238;-76
2022/11/01 02:32:36;;;;;;;1999.90;999.90;;;;;;;9.99;100.00;94358.13;5079503;28;20225;-76
2022/11/01 02:35:23;;;;;;;1999.90;999.90;;;;;;;9.94;100.00;94360.59;5080659;28;20201;-77
2022/11/01 02:38:14;;;;;;;1999.90;999.90;;;;;;;9.85;100.00;94376.78;5079765;28;20169;-69
2022/11/01 02:41:00;;;;;;;1999.90;999.90;;;;;;;9.81;100.00;94382.28;5080327;28;20177;-65
2022/11/01 02:43:36;;;;;;;1999.90;999.90;;;;;;;9.85;100.00;94393.94;5080284;28;20171;-65
2022/11/01 02:46:59;;;;;;;1999.90;999.90;;;;;;;9.90;100.00;94396.13;5080324;28;20169;-65
2022/11/01 02:48:50;;;;;;;1999.90;999.90;;;;;;;9.97;100.00;94412.34;5097307;28;20255;-65
2022/11/01 02:51:18;;;;;;;1999.90;999.90;;;;;;;10.02;100.00;94435.63;5079615;28;20222;-65
2022/11/01 02:53:44;;;;;;;1999.90;999.90;;;;;;;10.02;100.00;94446.53;5079505;28;20212;-65
2022/11/01 02:56:10;;;;;;;1999.90;999.90;;;;;;;9.97;100.00;94515.97;5079472;28;20233;-77
2022/11/01 02:58:36;;;;;;;1999.90;999.90;;;;;;;9.94;100.00;94535.91;5079988;28;20191;-64
2022/11/01 03:01:01;;;;;;;1999.90;999.90;;;;;;;9.91;100.00;94555.09;5079732;28;20181;-64
2022/11/01 03:03:32;;;;;;;1999.90;999.90;;;;;;;9.88;100.00;94559.38;5079385;28;20207;-64
2022/11/01 03:06:04;;;;;;;1999.90;999.90;;;;;;;9.83;100.00;94565.34;5079445;28;20206;-64
2022/11/01 03:08:45;;;;;;;1999.90;999.90;;;;;;;9.81;100.00;94577.84;5079030;28;20176;-64
2022/11/01 03:11:12;;;;;;;1999.90;999.90;;;;;;;9.78;100.00;94579.47;5079663;28;20169;-65
2022/11/01 03:13:51;;;;;;;1999.90;999.90;;;;;;;9.75;100.00;94585.75;5079213;28;20205;-76
2022/11/01 03:16:35;;;;;;;1999.90;999.90;;;;;;;9.70;100.00;94588.19;5079327;28;20180;-65
2022/11/01 03:19:01;;;;;;;1999.90;999.90;;;;;;;9.67;100.00;94592.53;5097073;28;20198;-65
2022/11/01 03:21:31;;;;;;;1999.90;999.90;;;;;;;9.64;100.00;94585.16;5079659;28;20177;-66
2022/11/01 03:24:06;;;;;;;1999.90;999.90;;;;;;;9.61;100.00;94596.91;5079637;28;20176;-65
2022/11/01 03:26:34;;;;;;;1999.90;999.90;;;;;;;9.63;100.00;94594.53;5079306;28;20172;-65
2022/11/01 03:29:05;;;;;;;1999.90;999.90;;;;;;;9.62;100.00;94598.44;5078534;28;20169;-65
2022/11/01 03:31:35;;;;;;;1999.90;999.90;;;;;;;9.59;100.00;94593.81;5079006;28;20235;-75
2022/11/01 03:34:05;;;;;;;1999.90;999.90;;;;;;;9.60;100.00;94589.13;5078713;28;20195;-66
2022/11/01 03:36:37;;;;;;;1999.90;999.90;;;;;;;9.58;100.00;94584.09;5079537;28;20270;-65
2022/11/01 03:39:26;;;;;;;1999.90;999.90;;;;;;;9.57;100.00;94595.41;5078905;28;20203;-65
2022/11/01 03:41:57;;;;;;;1999.90;999.90;;;;;;;9.58;100.00;94588.81;5079306;28;20172;-65
2022/11/01 03:44:24;;;;;;;1999.90;999.90;;;;;;;9.54;100.00;94594.28;5079410;28;20168;-65
2022/11/01 03:46:50;;;;;;;1999.90;999.90;;;;;;;9.54;100.00;94597.03;5078708;28;20181;-65
2022/11/01 03:49:19;;;;;;;1999.90;999.90;;;;;;;9.57;100.00;94609.03;5078879;28;20179;-69
2022/11/01 03:51:45;;;;;;;1999.90;999.90;;;;;;;9.58;100.00;94616.81;5078737;28;20233;-66
2022/11/01 03:54:10;;;;;;;1999.90;999.90;;;;;;;9.60;100.00;94610.94;5078511;28;20211;-76
2022/11/01 03:56:40;;;;;;;1999.90;999.90;;;;;;;9.59;100.00;94615.63;5078483;28;20165;-76
2022/11/01 03:59:09;;;;;;;1999.90;999.90;;;;;;;9.65;100.00;94624.88;5078379;28;20172;-76
2022/11/01 04:01:35;;;;;;;1999.90;999.90;;;;;;;9.68;100.00;94643.13;5078321;28;20306;-75
2022/11/01 04:04:01;;;;;;;1999.90;999.90;;;;;;;9.72;100.00;94657.47;5078880;28;20279;-75
2022/11/01 04:06:26;;;;;;;1999.90;999.90;;;;;;;9.75;100.00;94675.72;5077994;28;20179;-75
2022/11/01 04:08:52;;;;;;;1999.90;999.90;;;;;;;9.74;100.00;94704.19;5078736;28;20172;-66
2022/11/01 04:11:17;;;;;;;1999.90;999.90;;;;;;;9.82;100.00;94718.44;5078107;28;20169;-65
2022/11/01 04:13:42;;;;;;;1999.90;999.90;;;;;;;9.83;100.00;94750.75;5077998;28;20202;-65
2022/11/01 04:21:39;;;;;;;1999.90;999.90;;;;;;;9.66;100.00;94817.22;5096168;28;20165;-65
2022/11/01 04:24:05;;;;;;;1999.90;999.90;;;;;;;9.61;100.00;94812.25;5077895;28;20184;-66
2022/11/01 04:26:31;;;;;;;1999.90;999.90;;;;;;;9.55;100.00;94800.25;5078266;28;20173;-75
2022/11/01 04:28:56;;;;;;;1999.90;999.90;;;;;;;9.50;100.00;94780.84;5077800;28;20165;-66
2022/11/01 04:31:34;;;;;;;1999.90;999.90;;;;;;;9.45;100.00;94768.47;5077129;28;20227;-69
2022/11/01 04:34:01;;;;;;;1999.90;999.90;;;;;;;9.45;100.00;94754.84;5077874;28;20208;-69
2022/11/01 04:36:26;;;;;;;1999.90;999.90;;;;;;;9.44;100.00;94756.00;5077402;28;20269;-70
2022/11/01 04:38:56;;;;;;;1999.90;999.90;;;;;;;9.41;100.00;94756.06;5077015;28;20215;-69
2022/11/01 04:41:24;;;;;;;1999.90;999.90;;;;;;;9.39;100.00;94742.88;5077924;28;20179;-69
2022/11/01 04:43:52;;;;;;;1999.90;999.90;;;;;;;9.34;100.00;94746.06;5078049;28;20176;-69
2022/11/01 04:46:18;;;;;;;1999.90;999.90;;;;;;;9.30;100.00;94739.91;5077283;28;20176;-65
2022/11/01 04:48:43;;;;;;;1999.90;999.90;;;;;;;9.27;100.00;94737.97;5077365;28;20177;-75
2022/11/01 04:51:09;;;;;;;1999.90;999.90;;;;;;;9.23;100.00;94733.75;5077338;28;20184;-75
2022/11/01 04:53:35;;;;;;;1999.90;999.90;;;;;;;9.19;100.00;94733.81;5077017;28;20212;-75
2022/11/01 04:56:02;;;;;;;1999.90;999.90;;;;;;;9.16;100.00;94722.97;5077566;28;20182;-75
2022/11/01 04:58:28;;;;;;;1999.90;999.90;;;;;;;9.20;100.00;94702.66;5076963;28;20169;-76
2022/11/01 05:00:53;;;;;;;1999.90;999.90;;;;;;;9.21;100.00;94696.03;5077687;28;20176;-75
2022/11/01 05:03:19;;;;;;;1999.90;999.90;;;;;;;9.23;100.00;94701.06;5077567;28;20318;-66
2022/11/01 05:05:44;;;;;;;1999.90;999.90;;;;;;;9.21;100.00;94714.31;5077557;28;20183;-65
2022/11/01 05:08:11;;;;;;;1999.90;999.90;;;;;;;9.19;100.00;94712.03;5077435;28;20172;-69
2022/11/01 05:10:42;;;;;;;1999.90;999.90;;;;;;;9.17;100.00;94708.94;5077238;28;20176;-69
2022/11/01 05:13:10;;;;;;;1999.90;999.90;;;;;;;9.12;100.00;94720.28;5077782;28;20196;-69
2022/11/01 05:15:36;;;;;;;1999.90;999.90;;;;;;;9.04;100.00;94729.72;5077529;28;20187;-69
2022/11/01 05:18:02;;;;;;;1999.90;999.90;;;;;;;9.01;100.00;94730.56;5077233;28;20172;-67
2022/11/01 05:20:29;;;;;;;1999.90;999.90;;;;;;;9.00;100.00;94728.25;5076589;28;20177;-68
2022/11/01 05:22:59;;;;;;;1999.90;999.90;;;;;;;9.01;100.00;94718.88;5076793;28;20175;-66
2022/11/01 05:25:25;;;;;;;1999.90;999.90;;;;;;;9.04;100.00;94718.81;5076876;28;20322;-64
2022/11/01 05:27:50;;;;;;;1999.90;999.90;;;;;;;9.13;100.00;94715.59;5077482;28;20189;-64
2022/11/01 05:30:15;;;;;;;1999.90;999.90;;;;;;;9.19;100.00;94722.94;5076957;28;20174;-65
2022/11/01 05:32:41;;;;;;;1999.90;999.90;;;;;;;9.21;100.00;94731.44;5076508;28;20235;-64
2022/11/01 05:35:06;;;;;;;1999.90;999.90;;;;;;;9.20;100.00;94750.91;5076975;28;20176;-64
2022/11/01 05:37:34;;;;;;;1999.90;999.90;;;;;;;9.26;100.00;94750.03;5077337;28;20198;-64
2022/11/01 05:40:00;;;;;;;1999.90;999.90;;;;;;;9.29;100.00;94754.69;5076617;28;20199;-65
2022/11/01 05:42:25;;;;;;;1999.90;999.90;;;;;;;9.33;100.00;94768.25;5076805;28;20180;-65
2022/11/01 05:44:51;;;;;;;1999.90;999.90;;;;;;;9.35;100.00;94791.19;5077099;28;20213;-64
2022/11/01 05:47:16;;;;;;;1999.90;999.90;;;;;;;9.34;100.00;94808.72;5076929;28;20200;-65
2022/11/01 05:49:41;;;;;;;1999.90;999.90;;;;;;;9.37;100.00;94813.34;5080514;28;20177;-65
2022/11/01 05:52:07;;;;;;;1999.90;999.90;;;;;;;9.43;100.00;94827.28;5080751;28;20206;-64
2022/11/01 05:54:32;;;;;;;1999.90;999.90;;;;;;;9.46;100.00;94843.59;5081175;28;20203;-64
2022/11/01 05:56:57;;;;;;;1999.90;999.90;;;;;;;9.49;100.00;94840.06;5080844;28;20222;-64
2022/11/01 05:59:23;;;;;;;1999.90;999.90;;;;;;;9.50;100.00;94841.59;5081212;28;20173;-65
2022/11/01 06:01:48;;;;;;;1999.90;999.90;;;;;;;9.54;100.00;94846.97;5080299;28;20172;-65
2022/11/01 06:04:13;;;;;;;1999.90;999.90;;;;;;;9.55;100.00;94848.56;5080357;28;20195;-66
2022/11/01 06:06:39;;;;;;;1999.90;999.90;;;;;;;9.56;100.00;94855.53;5080608;28;20208;-66
2022/11/01 06:09:04;;;;;;;1999.90;999.90;;;;;;;9.59;100.00;94852.75;5080518;28;20180;-65
2022/11/01 06:11:29;;;;;;;1999.90;999.90;;;;;;;9.61;100.00;94864.03;5080426;28;20255;-66
2022/11/01 06:13:56;;;;;;;1999.90;999.90;;;;;;;9.66;100.00;94879.91;5080322;28;20299;-65
2022/11/01 06:16:22;;;;;;;1999.90;999.90;;;;;;;9.69;100.00;94887.28;5080419;28;20218;-65
2022/11/01 06:18:48;;;;;;;1999.90;999.90;;;;;;;9.73;100.00;94893.47;5080725;28;20177;-65
2022/11/01 06:21:14;;;;;;;1999.90;999.90;;;;;;;9.78;100.00;94923.00;5080154;28;20243;-75
2022/11/01 06:23:39;;;;;;;1999.90;999.90;;;;;;;9.83;100.00;94924.50;5080107;28;20176;-75
2022/11/01 06:26:05;;;;;;;1999.90;999.90;;;;;;;9.88;100.00;94940.41;5080190;28;20179;-75
2022/11/01 06:28:30;;;;;;;1999.90;999.90;;;;;;;9.91;100.00;94967.63;5079755;28;20204;-75
2022/11/01 06:31:01;;;;;;;1999.90;999.90;;;;;;;9.95;100.00;94982.00;5079990;28;20178;-75
2022/11/01 06:33:26;;;;;;;1999.90;999.90;;;;;;;9.99;100.00;95004.53;5079787;28;20204;-75
2022/11/01 06:35:51;;;;;;;1999.90;999.90;;;;;;;10.01;100.00;95024.00;5079747;28;20178;-68
2022/11/01 06:38:17;;;;;;;1999.90;999.90;;;;;;;10.03;100.00;95040.72;5079602;28;20195;-66
2022/11/01 06:40:42;;;;;;;1999.90;999.90;;;;;;;10.04;100.00;95063.34;5079801;28;20176;-66
2022/11/01 06:43:08;;;;;;;1999.90;999.90;;;;;;;10.06;100.00;95061.00;5079783;28;20165;-66
2022/11/01 06:45:33;;;;;;;1999.90;999.90;;;;;;;10.13;100.00;95068.34;5079770;28;20180;-66
2022/11/01 06:47:59;;;;;;;1999.90;999.90;;;;;;;10.20;100.00;95084.63;5079749;28;20177;-65
2022/11/01 06:50:24;;;;;;;1999.90;999.90;;;;;;;10.31;100.00;95093.47;5079659;28;20269;-66
2022/11/01 06:52:49;;;;;;;1999.90;999.90;;;;;;;10.38;100.00;95112.47;5080000;28;20192;-64
2022/11/01 06:55:15;;;;;;;1999.90;999.90;;;;;;;10.49;100.00;95137.69;5080287;28;20172;-74
2022/11/01 06:57:41;;;;;;;1999.90;999.90;;;;;;;10.63;100.00;95173.03;5079556;28;20234;-64
2022/11/01 07:00:08;;;;;;;1999.90;999.90;;;;;;;10.80;100.00;95193.88;5078585;28;20178;-65
2022/11/01 07:02:34;;;;;;;1999.90;999.90;;;;;;;10.94;100.00;95245.59;5079855;28;20177;-64
2022/11/01 07:04:59;;;;;;;1999.90;999.90;;;;;;;11.15;100.00;95269.94;5079436;28;20295;-64
2022/11/01 07:07:24;;;;;;;1999.90;999.90;;;;;;;11.35;100.00;95306.38;5079381;28;20248;-64
2022/11/01 07:09:50;;;;;;;1999.90;999.90;;;;;;;11.57;100.00;95340.47;5079499;28;20172;-65
2022/11/01 07:12:15;;;;;;;1999.90;999.90;;;;;;;11.79;100.00;95372.66;5097179;28;20189;-66
2022/11/01 07:14:40;;;;;;;1999.90;999.90;;;;;;;12.05;100.00;95401.22;5079859;28;20168;-74
2022/11/01 07:17:06;;;;;;;1999.90;999.90;;;;;;;12.30;100.00;95432.53;5079336;28;20169;-73
2022/11/01 07:19:31;;;;;;;1999.90;999.90;;;;;;;12.52;100.00;95457.66;5079468;28;20176;-73
2022/11/01 07:21:56;;;;;;;1999.90;999.90;;;;;;;12.76;100.00;95481.19;5079346;28;20168;-74
2022/11/01 07:24:22;;;;;;;1999.90;999.90;;;;;;;13.00;100.00;95501.97;5079227;28;20165;-72
2022/11/01 07:26:47;;;;;;;1999.90;999.90;;;;;;;13.39;100.00;95518.56;5079654;28;20210;-72
2022/11/01 07:29:12;;;;;;;1999.90;999.90;;;;;;;14.08;100.00;95545.13;5097101;28;20165;-71
2022/11/01 07:31:38;;;;;;;1999.90;999.90;;;;;;;14.89;100.00;95575.28;5078568;28;20216;-65
2022/11/01 07:34:04;;;;;;;1999.90;999.90;;;;;;;15.47;100.00;95592.84;5078646;28;20201;-66
2022/11/01 07:36:29;;;;;;;1999.90;999.90;;;;;;;15.34;100.00;95620.25;5079026;28;20175;-67
2022/11/01 07:38:55;;;;;;;1999.90;999.90;;;;;;;15.17;100.00;95632.44;5079519;28;20177;-67
2022/11/01 07:41:20;;;;;;;1999.90;999.90;;;;;;;14.93;100.00;95639.22;5079114;28;20175;-68
2022/11/01 07:43:46;;;;;;;1999.90;999.90;;;;;;;14.94;100.00;95638.03;5078825;28;20200;-67
2022/11/01 07:46:11;;;;;;;1999.90;999.90;;;;;;;14.97;100.00;95639.19;5078522;28;20261;-67
2022/11/01 07:48:36;;;;;;;1999.90;999.90;;;;;;;14.93;100.00;95644.72;5078441;28;20188;-63
2022/11/01 07:51:04;;;;;;;1999.90;999.90;;;;;;;14.96;100.00;95646.63;5079194;28;20231;-63
2022/11/01 07:53:30;;;;;;;1999.90;999.90;;;;;;;15.00;100.00;95643.81;5078440;28;20196;-66
2022/11/01 07:55:56;;;;;;;1999.90;999.90;;;;;;;15.18;100.00;95647.72;5078919;28;20176;-66
2022/11/01 07:58:21;;;;;;;1999.90;999.90;;;;;;;15.85;100.00;95649.72;5078280;28;20169;-68
2022/11/01 08:00:46;;;;;;;1999.90;999.90;;;;;;;16.93;100.00;95653.56;5078298;28;20180;-66
2022/11/01 08:03:14;;;;;;;1999.90;999.90;;;;;;;18.31;100.00;95672.97;5078472;28;20259;-65
2022/11/01 08:05:41;;;;;;;1999.90;999.90;;;;;;;18.88;100.00;95672.59;5078331;28;20172;-65
2022/11/01 08:08:06;;;;;;;1999.90;999.90;;;;;;;19.05;100.00;95683.00;5078373;28;20223;-78
2022/11/01 08:10:33;;;;;;;1999.90;999.90;;;;;;;19.68;100.00;95684.66;5078284;28;20177;-63
2022/11/01 08:13:03;;;;;;;1999.90;999.90;;;;;;;20.49;100.00;95682.94;5077417;28;20200;-63
2022/11/01 08:15:29;;;;;;;1999.90;999.90;;;;;;;21.09;100.00;95686.69;5078052;28;20172;-63
2022/11/01 08:17:56;;;;;;;1999.90;999.90;;;;;;;21.03;100.00;95688.56;5078054;28;20184;-63
2022/11/01 08:20:22;;;;;;;1999.90;999.90;;;;;;;20.62;100.00;95680.81;5077765;28;20172;-64
2022/11/01 08:22:47;;;;;;;1999.90;999.90;;;;;;;20.33;100.00;95680.47;5077557;28;20202;-63
2022/11/01 08:25:13;;;;;;;1999.90;999.90;;;;;;;19.66;100.00;95682.31;5077910;28;20168;-63
2022/11/01 08:27:38;;;;;;;1999.90;999.90;;;;;;;19.45;100.00;95683.16;5077854;28;20181;-68
2022/11/01 08:30:04;;;;;;;1999.90;999.90;;;;;;;19.29;100.00;95686.13;5077783;28;20232;-69
2022/11/01 08:32:29;;;;;;;1999.90;999.90;;;;;;;19.39;100.00;95693.28;5077438;28;20227;-68
2022/11/01 08:34:54;;;;;;;1999.90;999.90;;;;;;;19.26;100.00;95700.88;5078075;28;20184;-68
2022/11/01 08:37:20;;;;;;;1999.90;999.90;;;;;;;19.06;100.00;95706.69;5078036;28;20171;-67
2022/11/01 08:39:45;;;;;;;1999.90;999.90;;;;;;;18.79;100.00;95708.47;5077737;28;20180;-68
2022/11/01 08:42:10;;;;;;;1999.90;999.90;;;;;;;18.59;100.00;95710.78;5078256;28;20256;-67
2022/11/01 08:44:36;;;;;;;1999.90;999.90;;;;;;;18.36;100.00;95719.47;5077391;28;20194;-67
2022/11/01 08:47:02;;;;;;;1999.90;999.90;;;;;;;18.40;100.00;95717.34;5078058;28;20168;-66
2022/11/01 08:49:27;;;;;;;1999.90;999.90;;;;;;;18.37;100.00;95718.25;5077180;28;20229;-66
2022/11/01 08:51:53;;;;;;;1999.90;999.90;;;;;;;18.39;100.00;95715.81;5077326;28;20169;-67
2022/11/01 08:54:18;;;;;;;1999.90;999.90;;;;;;;18.30;100.00;95727.53;5077316;28;20191;-67
2022/11/01 08:56:44;;;;;;;1999.90;999.90;;;;;;;18.16;100.00;95724.44;5077573;28;20183;-67
2022/11/01 08:59:09;;;;;;;1999.90;999.90;;;;;;;18.26;100.00;95723.31;5078097;28;20271;-66
2022/11/01 09:01:35;;;;;;;1999.90;999.90;;;;;;;18.31;100.00;95722.75;5077832;28;20184;-67
2022/11/01 09:04:00;;;;;;;1999.90;999.90;;;;;;;18.35;100.00;95720.66;5077360;28;20192;-67
2022/11/01 09:06:27;;;;;;;1999.90;999.90;;;;;;;18.35;100.00;95724.22;5076939;28;20271;-67
2022/11/01 09:08:53;;;;;;;1999.90;999.90;;;;;;;18.36;100.00;95722.22;5077013;28;20180;-66
2022/11/01 09:11:20;;;;;;;1999.90;999.90;;;;;;;18.29;100.00;95720.41;5077444;28;20202;-67
2022/11/01 09:13:46;;;;;;;1999.90;999.90;;;;;;;18.25;100.00;95713.47;5077017;28;20220;-67
2022/11/01 09:16:11;;;;;;;1999.90;999.90;;;;;;;18.29;100.00;95714.88;5094583;28;20264;-68
2022/11/01 09:18:37;;;;;;;1999.90;999.90;;;;;;;18.29;100.00;95705.84;5077062;28;20176;-68
2022/11/01 09:21:02;;;;;;;1999.90;999.90;;;;;;;18.27;100.00;95703.50;5076746;28;20183;-64
2022/11/01 09:23:28;;;;;;;1999.90;999.90;;;;;;;18.27;100.00;95700.75;5077471;28;20173;-65
2022/11/01 09:26:01;;;;;;;1999.90;999.90;;;;;;;18.29;100.00;95697.53;5077147;28;20176;-63
2022/11/01 09:28:28;;;;;;;1999.90;999.90;;;;;;;18.21;100.00;95701.75;5094811;28;20160;-64
2022/11/01 09:30:53;;;;;;;1999.90;999.90;;;;;;;18.14;100.00;95691.69;5076561;28;20194;-63
2022/11/01 09:33:22;;;;;;;1999.90;999.90;;;;;;;18.11;100.00;95692.59;5073391;28;20229;-63
2022/11/01 09:35:49;;;;;;;1999.90;999.90;;;;;;;18.05;100.00;95693.59;5074204;28;20197;-63
2022/11/01 09:38:14;;;;;;;1999.90;999.90;;;;;;;18.03;100.00;95684.97;5073422;28;20230;-63
2022/11/01 09:40:45;;;;;;;1999.90;999.90;;;;;;;18.03;100.00;95685.72;5073517;28;20190;-63
2022/11/01 09:43:17;;;;;;;1999.90;999.90;;;;;;;18.01;100.00;95687.41;5073977;28;20180;-73
2022/11/01 09:45:42;;;;;;;1999.90;999.90;;;;;;;18.03;100.00;95688.50;5074382;28;20252;-73
2022/11/01 09:48:12;;;;;;;1999.90;999.90;;;;;;;18.05;100.00;95696.34;5073144;28;20173;-72
2022/11/01 09:50:39;;;;;;;1999.90;999.90;;;;;;;18.08;100.00;95704.53;5073211;28;20267;-73
2022/11/01 09:53:13;;;;;;;1999.90;999.90;;;;;;;18.06;100.00;95709.72;5073830;28;20227;-72
2022/11/01 09:55:50;;;;;;;1999.90;999.90;;;;;;;18.18;100.00;95710.94;5073036;28;20173;-74
2022/11/01 09:58:41;;;;;;;1999.90;999.90;;;;;;;18.26;100.00;95717.78;5073805;28;20177;-71
2022/11/01 10:01:22;;;;;;;1999.90;999.90;;;;;;;18.36;100.00;95716.69;5073709;28;20590;-66
2022/11/01 10:04:12;;;;;;;1999.90;999.90;;;;;;;18.32;100.00;95721.53;5072809;28;20207;-67
2022/11/01 10:06:51;;;;;;;1999.90;999.90;;;;;;;18.48;100.00;95718.66;5073234;28;20176;-67
2022/11/01 10:09:49;;;;;;;1999.90;999.90;;;;;;;18.52;100.00;95724.84;5072853;28;20204;-67
2022/11/01 10:12:37;;;;;;;1999.90;999.90;;;;;;;18.61;100.00;95722.19;5058770;28;20279;-67
2022/11/01 10:15:09;;;;;;;1999.90;999.90;;;;;;;18.63;100.00;95728.03;5073648;28;20162;-66
2022/11/01 10:17:51;;;;;;;1999.90;999.90;;;;;;;18.64;100.00;95729.56;5072996;28;20246;-66
2022/11/01 10:20:19;;;;;;;1999.90;999.90;;;;;;;18.72;100.00;95728.88;5073365;28;20177;-74
2022/11/01 10:22:48;;;;;;;1999.90;999.90;;;;;;;18.77;100.00;95722.00;5073428;28;20213;-79
2022/11/01 10:25:13;;;;;;;1999.90;999.90;;;;;;;18.88;100.00;95716.88;5072896;28;20203;-80
2022/11/01 10:27:51;;;;;;;1999.90;999.90;;;;;;;19.02;100.00;95721.91;5073146;28;20276;-81
2022/11/01 10:30:17;;;;;;;1999.90;999.90;;;;;;;19.13;100.00;95725.06;5073149;28;20177;-81
2022/11/01 10:33:01;;;;;;;1999.90;999.90;;;;;;;19.38;100.00;95727.75;5072838;28;20228;-76
2022/11/01 10:35:31;;;;;;;1999.90;999.90;;;;;;;19.49;100.00;95711.50;5074863;28;20226;-65
2022/11/01 10:38:04;;;;;;;1999.90;999.90;;;;;;;19.72;100.00;95711.00;5077085;28;20181;-74
2022/11/01 10:40:35;;;;;;;1999.90;999.90;;;;;;;19.94;100.00;95714.50;5076374;28;20169;-74
2022/11/01 10:43:04;;;;;;;1999.90;999.90;;;;;;;20.04;100.00;95707.78;5077020;28;20223;-75
2022/11/01 10:45:30;;;;;;;1999.90;999.90;;;;;;;20.15;100.00;95708.16;5076124;28;20173;-75
2022/11/01 10:47:57;;;;;;;1999.90;999.90;;;;;;;20.29;100.00;95704.78;5076353;28;20176;-74
2022/11/01 10:50:26;;;;;;;1999.90;999.90;;;;;;;20.28;100.00;95700.47;5076241;28;20199;-74
2022/11/01 10:52:51;;;;;;;1999.90;999.90;;;;;;;20.29;100.00;95701.25;5076045;28;20205;-70
2022/11/01 10:55:40;;;;;;;1999.90;999.90;;;;;;;20.12;100.00;95700.72;5076229;28;20196;-66
2022/11/01 10:58:24;;;;;;;1999.90;999.90;;;;;;;20.21;100.00;95700.75;5076599;28;20224;-71
2022/11/01 11:00:50;;;;;;;1999.90;999.90;;;;;;;20.28;100.00;95689.38;5076055;28;20169;-70